Terminal Aerodrome Forecast
Issued by NWS Omaha/Valley, NE

Home | Current Version | Previous Version | Graphics & Text | Print | Product List | Glossary On
Versions: 1 2 3 4 5 6 7 8 9 10 11 12 13 14 15 16 17 18 19 20 21 22 23 24 25 26 27 28 29 30 31 32 33 34 35 36
000
FTUS43 KOAX 291603 AAB
TAFOFK
TAF AMD
KOFK 291603Z 2916/3012 VRB05KT P6SM OVC007
      TEMPO 2918/2922 3SM TSRA OVC015CB
     FM292200 32008KT P6SM OVC100
     FM300900 30003KT 4SM BR BKN025=

USA.gov is the U.S. government's official web portal to all federal, state and local government web resources and services.